Time;durP1;ratioP1;P1;durP2;ratioP2;P2;SDS_P1;SDS_P2;PMS_P1;PMS_P2;Temp;Humidity;BMP_temperature;BMP_pressure;BME280_temperature;BME280_humidity;BME280_pressure;Samples;Min_cycle;Max_cycle;Signal;HPM_P1;HPM_P2
2022/09/18 00:00:50;;;;;;;6.70;1.30;;;12.10;99.90;;;;;;5052032;28;20226;-55
2022/09/18 00:03:18;;;;;;;5.10;1.23;;;12.20;99.90;;;;;;5051873;28;20209;-55
2022/09/18 00:05:45;;;;;;;4.33;1.10;;;12.20;99.90;;;;;;5051876;28;20225;-56
2022/09/18 00:08:11;;;;;;;8.13;1.70;;;12.20;99.90;;;;;;5051237;28;20205;-55
2022/09/18 00:10:41;;;;;;;3.70;1.20;;;12.20;99.90;;;;;;5051811;28;20715;-54
2022/09/18 00:13:09;;;;;;;1.77;0.97;;;12.20;99.90;;;;;;5052400;28;20213;-55
2022/09/18 00:15:36;;;;;;;5.20;1.37;;;12.20;99.90;;;;;;5052567;28;20319;-55
2022/09/18 00:18:04;;;;;;;3.13;1.30;;;12.20;99.90;;;;;;5052279;28;20340;-56
2022/09/18 00:20:33;;;;;;;3.60;1.43;;;12.30;99.90;;;;;;5051870;28;20305;-55
2022/09/18 00:23:00;;;;;;;3.73;1.17;;;12.30;99.90;;;;;;5051463;28;20259;-55
2022/09/18 00:25:26;;;;;;;3.63;1.30;;;12.30;99.90;;;;;;5051277;28;20226;-55
2022/09/18 00:27:53;;;;;;;4.80;1.10;;;12.30;99.90;;;;;;5050979;28;20296;-54
2022/09/18 00:30:20;;;;;;;3.50;1.10;;;12.40;99.90;;;;;;5051371;28;20197;-54
2022/09/18 00:32:46;;;;;;;5.43;1.00;;;12.40;99.90;;;;;;5051341;28;20213;-53
2022/09/18 00:35:13;;;;;;;6.10;1.20;;;12.40;99.90;;;;;;5051148;28;20655;-54
2022/09/18 00:37:41;;;;;;;5.07;1.00;;;12.40;99.90;;;;;;5050698;28;20739;-55
2022/09/18 00:40:09;;;;;;;4.23;1.00;;;12.30;99.90;;;;;;5051159;28;20206;-55
2022/09/18 00:42:36;;;;;;;4.43;1.33;;;12.30;99.90;;;;;;5053580;28;20240;-55
2022/09/18 00:45:03;;;;;;;3.70;1.20;;;12.30;99.90;;;;;;5055049;28;20271;-54
2022/09/18 00:47:32;;;;;;;5.97;1.27;;;12.30;99.90;;;;;;5054584;28;20269;-55
2022/09/18 00:50:04;;;;;;;4.97;1.23;;;12.30;99.90;;;;;;5054890;28;20627;-54
2022/09/18 00:52:38;;;;;;;6.80;1.37;;;12.30;99.90;;;;;;5054680;28;20731;-54
2022/09/18 00:55:09;;;;;;;4.33;1.23;;;12.30;99.90;;;;;;5054730;28;20714;-54
2022/09/18 00:57:41;;;;;;;7.23;1.40;;;12.30;99.90;;;;;;5054261;28;20202;-55
2022/09/18 01:00:10;;;;;;;5.10;1.30;;;12.40;99.90;;;;;;5054584;28;20213;-54
2022/09/18 01:02:37;;;;;;;4.27;1.33;;;12.30;99.90;;;;;;5054471;28;20264;-54
2022/09/18 01:05:04;;;;;;;4.30;0.93;;;12.40;99.90;;;;;;5054345;28;20279;-54
2022/09/18 01:07:42;;;;;;;4.00;1.30;;;12.40;99.90;;;;;;5054459;28;20217;-55
2022/09/18 01:10:21;;;;;;;4.90;1.60;;;12.40;99.90;;;;;;5054443;28;20209;-54
2022/09/18 01:12:54;;;;;;;7.27;1.37;;;12.50;99.90;;;;;;5054325;28;20201;-54
2022/09/18 01:15:30;;;;;;;4.23;1.37;;;12.50;99.90;;;;;;5054102;28;20233;-54
2022/09/18 01:18:05;;;;;;;4.50;1.20;;;12.50;99.90;;;;;;5054154;28;20209;-55
2022/09/18 01:20:53;;;;;;;2.33;1.03;;;12.50;99.90;;;;;;5054313;28;20231;-54
2022/09/18 01:23:59;;;;;;;3.20;1.27;;;12.50;99.90;;;;;;5054210;28;20205;-54
2022/09/18 01:26:44;;;;;;;5.87;1.50;;;12.50;99.90;;;;;;5048982;28;20202;-54
2022/09/18 01:29:22;;;;;;;8.17;1.30;;;12.50;99.90;;;;;;5053674;28;20210;-54
2022/09/18 01:31:53;;;;;;;3.20;1.10;;;12.40;99.90;;;;;;5053954;28;20284;-55
2022/09/18 01:34:25;;;;;;;6.57;1.53;;;12.40;99.90;;;;;;5053814;28;20629;-54
2022/09/18 01:36:58;;;;;;;5.63;1.30;;;12.40;99.90;;;;;;5054183;28;20210;-54
2022/09/18 01:39:31;;;;;;;6.00;1.30;;;12.40;99.90;;;;;;5053561;28;20244;-54
2022/09/18 01:41:58;;;;;;;4.10;1.30;;;12.40;99.90;;;;;;5054115;28;20276;-55
2022/09/18 01:44:29;;;;;;;5.27;1.40;;;12.40;99.90;;;;;;5053655;28;20226;-54
2022/09/18 01:46:58;;;;;;;7.23;1.67;;;12.50;99.90;;;;;;5054107;28;20223;-54
2022/09/18 01:49:29;;;;;;;4.20;1.27;;;12.50;99.90;;;;;;5053466;28;20210;-54
2022/09/18 01:52:02;;;;;;;5.07;1.20;;;12.60;99.90;;;;;;5053671;28;20236;-54
2022/09/18 01:54:33;;;;;;;4.23;1.20;;;12.60;99.90;;;;;;5052471;28;20633;-54
2022/09/18 01:57:07;;;;;;;6.90;1.57;;;12.60;99.90;;;;;;5053371;28;20209;-54
2022/09/18 01:59:42;;;;;;;5.63;1.33;;;12.50;99.90;;;;;;5053432;28;20210;-54
2022/09/18 02:02:15;;;;;;;3.40;1.30;;;12.50;99.90;;;;;;5053384;28;20705;-54
2022/09/18 02:04:44;;;;;;;2.30;1.20;;;12.50;99.90;;;;;;5053329;28;20621;-54
2022/09/18 02:07:16;;;;;;;3.10;0.97;;;12.50;99.90;;;;;;5053402;28;20259;-54
2022/09/18 02:09:43;;;;;;;6.17;1.40;;;12.50;99.90;;;;;;5053140;28;20205;-54
2022/09/18 02:12:15;;;;;;;3.70;1.27;;;12.50;99.90;;;;;;5053347;28;20210;-54
2022/09/18 02:14:46;;;;;;;4.90;1.30;;;12.50;99.90;;;;;;5053273;28;20233;-54
2022/09/18 02:17:18;;;;;;;3.80;1.03;;;12.50;99.90;;;;;;5053358;28;20264;-54
2022/09/18 02:19:50;;;;;;;5.20;1.20;;;12.50;99.90;;;;;;5052873;28;20610;-54
2022/09/18 02:22:23;;;;;;;3.13;1.00;;;12.40;99.90;;;;;;5053139;28;20704;-54
2022/09/18 02:24:53;;;;;;;3.57;1.00;;;12.40;99.90;;;;;;5053141;28;20240;-54
2022/09/18 02:27:23;;;;;;;5.13;1.07;;;12.30;99.90;;;;;;5053074;28;20489;-56
2022/09/18 02:29:52;;;;;;;3.90;1.00;;;12.40;99.90;;;;;;5053293;28;20670;-54
2022/09/18 02:32:19;;;;;;;4.90;1.20;;;12.30;99.90;;;;;;5052913;28;20201;-55
2022/09/18 02:34:46;;;;;;;3.30;1.00;;;12.40;99.90;;;;;;5052762;28;20709;-54
2022/09/18 02:37:27;;;;;;;3.97;1.10;;;12.40;99.90;;;;;;5053168;28;20256;-55
2022/09/18 02:40:06;;;;;;;5.03;1.30;;;12.40;99.90;;;;;;5052929;28;20266;-54
2022/09/18 02:42:42;;;;;;;3.00;1.00;;;12.50;99.90;;;;;;5052718;28;20221;-54
2022/09/18 02:45:20;;;;;;;4.13;1.20;;;12.50;99.90;;;;;;5052826;28;20736;-54
2022/09/18 02:47:59;;;;;;;3.70;1.00;;;12.50;99.90;;;;;;5052223;28;20216;-55
2022/09/18 02:50:31;;;;;;;3.73;1.10;;;12.50;99.90;;;;;;5052746;28;20209;-55
2022/09/18 02:53:05;;;;;;;2.80;1.00;;;12.50;99.90;;;;;;5053239;28;20251;-55
2022/09/18 02:55:41;;;;;;;4.93;1.70;;;12.50;99.90;;;;;;5052799;28;20288;-54
2022/09/18 02:58:14;;;;;;;4.53;1.00;;;12.50;99.90;;;;;;5052226;28;20267;-54
2022/09/18 03:00:45;;;;;;;6.43;1.33;;;12.50;99.90;;;;;;5052353;28;20228;-55
2022/09/18 03:03:14;;;;;;;3.07;1.03;;;12.40;99.90;;;;;;5052386;28;20210;-54
2022/09/18 03:05:44;;;;;;;2.93;1.00;;;12.40;99.90;;;;;;5051670;28;20226;-55
2022/09/18 03:08:11;;;;;;;4.23;1.27;;;12.50;99.90;;;;;;5052200;28;20213;-54
2022/09/18 03:10:38;;;;;;;2.73;1.03;;;12.50;99.90;;;;;;5052220;28;20294;-54
2022/09/18 03:13:04;;;;;;;2.83;1.07;;;12.40;99.90;;;;;;5052260;28;20205;-54
2022/09/18 03:15:31;;;;;;;2.87;1.00;;;12.50;99.90;;;;;;5051921;28;20287;-54
2022/09/18 03:17:59;;;;;;;4.23;1.00;;;12.40;99.90;;;;;;5051526;28;20292;-55
2022/09/18 03:20:26;;;;;;;3.13;1.20;;;12.50;99.90;;;;;;5052248;28;20232;-54
2022/09/18 03:22:53;;;;;;;3.50;1.20;;;12.50;99.90;;;;;;5051891;28;20232;-54
2022/09/18 03:25:19;;;;;;;2.57;0.83;;;12.60;99.90;;;;;;5051810;28;20226;-54
2022/09/18 03:27:46;;;;;;;3.47;1.30;;;12.50;99.90;;;;;;5051551;28;20217;-55
2022/09/18 03:30:13;;;;;;;4.47;0.97;;;12.60;99.90;;;;;;5052465;28;20263;-54
2022/09/18 03:32:40;;;;;;;3.63;0.73;;;12.60;99.90;;;;;;5051815;28;20209;-54
2022/09/18 03:35:09;;;;;;;2.80;1.13;;;12.60;99.90;;;;;;5052094;28;20236;-54
2022/09/18 03:37:36;;;;;;;5.83;1.13;;;12.60;99.90;;;;;;5051510;28;20205;-55
2022/09/18 03:40:02;;;;;;;4.50;1.00;;;12.60;99.90;;;;;;5051985;28;20201;-54
2022/09/18 03:42:29;;;;;;;2.67;0.83;;;12.60;99.90;;;;;;5051700;28;20784;-54
2022/09/18 03:44:56;;;;;;;3.17;0.87;;;12.60;99.90;;;;;;5051793;28;20225;-55
2022/09/18 03:47:23;;;;;;;2.47;1.00;;;12.60;99.90;;;;;;5051676;28;20287;-54
2022/09/18 03:49:49;;;;;;;3.27;0.97;;;12.60;99.90;;;;;;5051264;28;20735;-54
2022/09/18 03:52:18;;;;;;;2.17;0.80;;;12.60;99.90;;;;;;5051750;28;20747;-54
2022/09/18 03:54:44;;;;;;;2.60;1.20;;;12.60;99.90;;;;;;5052248;28;20229;-54
2022/09/18 03:57:11;;;;;;;1.00;0.90;;;12.60;99.90;;;;;;5052143;28;20244;-54
2022/09/18 03:59:38;;;;;;;1.87;0.70;;;12.50;99.90;;;;;;5051436;28;20210;-54
2022/09/18 04:02:04;;;;;;;3.33;0.90;;;12.60;99.90;;;;;;5051575;28;20221;-54
2022/09/18 04:04:31;;;;;;;1.37;0.73;;;12.50;99.90;;;;;;5051735;28;20637;-54
2022/09/18 04:06:58;;;;;;;1.77;0.63;;;12.60;99.90;;;;;;5051938;28;20201;-54
2022/09/18 04:09:26;;;;;;;2.17;0.77;;;12.50;99.90;;;;;;5051573;28;20217;-54
2022/09/18 04:11:53;;;;;;;2.70;0.97;;;12.50;99.90;;;;;;5052006;28;20202;-54
2022/09/18 04:14:21;;;;;;;3.93;1.10;;;12.50;99.90;;;;;;5051459;28;20323;-54
2022/09/18 04:16:48;;;;;;;2.17;0.97;;;12.50;99.90;;;;;;5052150;28;20232;-54
2022/09/18 04:19:15;;;;;;;2.07;0.73;;;12.50;99.90;;;;;;5054911;28;20681;-55
2022/09/18 04:21:41;;;;;;;1.53;0.83;;;12.50;99.90;;;;;;5055502;28;20217;-54
2022/09/18 04:24:08;;;;;;;2.23;0.90;;;12.50;99.90;;;;;;5055425;28;20233;-54
2022/09/18 04:26:37;;;;;;;4.73;1.10;;;12.50;99.90;;;;;;5055157;28;20213;-55
2022/09/18 04:29:04;;;;;;;3.70;1.10;;;12.40;99.90;;;;;;5054555;28;20245;-54
2022/09/18 04:31:31;;;;;;;1.90;0.80;;;12.40;99.90;;;;;;5055379;28;20198;-55
2022/09/18 04:33:58;;;;;;;2.57;0.87;;;12.40;99.90;;;;;;5054961;28;20274;-55
2022/09/18 04:36:24;;;;;;;1.83;0.90;;;12.40;99.90;;;;;;5055027;28;20216;-54
2022/09/18 04:38:51;;;;;;;1.53;0.80;;;12.30;99.90;;;;;;5054947;28;20244;-54
2022/09/18 04:41:18;;;;;;;3.07;0.90;;;12.30;99.90;;;;;;5054774;28;20630;-54
2022/09/18 04:43:46;;;;;;;5.00;0.90;;;12.30;99.90;;;;;;5054614;28;20664;-54
2022/09/18 04:46:12;;;;;;;2.63;0.93;;;12.40;99.90;;;;;;5054883;28;20731;-54
2022/09/18 04:48:39;;;;;;;5.20;0.90;;;12.40;99.90;;;;;;5054646;28;20210;-54
2022/09/18 04:51:06;;;;;;;2.40;0.77;;;12.40;99.90;;;;;;5054863;28;20213;-55
2022/09/18 04:53:35;;;;;;;3.03;1.00;;;12.40;99.90;;;;;;5054935;28;20202;-54
2022/09/18 04:56:02;;;;;;;1.57;0.90;;;12.50;99.90;;;;;;5054619;28;20212;-55
2022/09/18 04:58:28;;;;;;;4.80;1.60;;;12.50;99.90;;;;;;5054305;28;20212;-54
2022/09/18 05:00:56;;;;;;;2.53;1.17;;;12.50;99.90;;;;;;5054685;28;20211;-54
2022/09/18 05:03:23;;;;;;;3.10;1.60;;;12.50;99.90;;;;;;5054746;28;20226;-54
2022/09/18 05:05:50;;;;;;;5.10;0.80;;;12.40;99.90;;;;;;5054476;28;20225;-55
2022/09/18 05:08:17;;;;;;;4.30;1.23;;;12.40;99.90;;;;;;5054072;28;20259;-55
2022/09/18 05:10:44;;;;;;;2.23;0.53;;;12.40;99.90;;;;;;5054553;28;20275;-55
2022/09/18 05:13:11;;;;;;;2.33;1.00;;;12.40;99.90;;;;;;5054716;28;20551;-54
2022/09/18 05:15:38;;;;;;;2.10;1.23;;;12.40;99.90;;;;;;5084367;22;20290;-60
2022/09/18 05:18:07;;;;;;;4.70;0.97;;;12.40;99.90;;;;;;5065445;28;20204;-60
2022/09/18 05:20:35;;;;;;;3.67;1.00;;;12.50;99.90;;;;;;5074279;28;20209;-61
2022/09/18 05:23:02;;;;;;;2.23;1.10;;;12.50;99.90;;;;;;5074224;28;20271;-59
2022/09/18 05:25:29;;;;;;;2.37;1.30;;;12.60;99.90;;;;;;5074388;28;20229;-60
2022/09/18 05:27:57;;;;;;;2.33;1.33;;;12.60;99.90;;;;;;5073827;28;20201;-60
2022/09/18 05:30:25;;;;;;;3.93;1.30;;;12.60;99.90;;;;;;5074361;28;20209;-60
2022/09/18 05:32:56;;;;;;;6.00;2.60;;;12.70;99.90;;;;;;5074167;28;20197;-60
2022/09/18 05:35:26;;;;;;;3.63;1.20;;;12.60;99.90;;;;;;5074039;28;20221;-61
2022/09/18 05:37:53;;;;;;;5.30;1.10;;;12.60;99.90;;;;;;5073305;28;20201;-59
2022/09/18 05:40:22;;;;;;;1.73;1.00;;;12.60;99.90;;;;;;5074334;28;20236;-60
2022/09/18 05:42:49;;;;;;;1.70;0.97;;;12.60;99.90;;;;;;5074006;28;20221;-62
2022/09/18 05:45:16;;;;;;;1.53;0.80;;;12.60;99.90;;;;;;5073809;28;20642;-61
2022/09/18 05:47:43;;;;;;;4.70;1.00;;;12.60;99.90;;;;;;5073271;28;20214;-61
2022/09/18 05:50:10;;;;;;;2.40;1.10;;;12.60;99.90;;;;;;5073735;28;20250;-59
2022/09/18 05:52:38;;;;;;;4.13;1.53;;;12.60;99.90;;;;;;5073959;28;20201;-60
2022/09/18 05:55:06;;;;;;;2.53;1.60;;;12.70;99.90;;;;;;5073856;28;20319;-61
2022/09/18 05:57:33;;;;;;;1.70;1.00;;;12.70;99.90;;;;;;5073739;28;20205;-60
2022/09/18 05:59:59;;;;;;;2.53;1.40;;;12.70;99.90;;;;;;5073009;28;20208;-60
2022/09/18 06:02:26;;;;;;;3.90;1.30;;;12.80;99.90;;;;;;5073410;28;20699;-60
2022/09/18 06:04:53;;;;;;;4.50;2.00;;;12.80;99.90;;;;;;5073461;28;20299;-60
2022/09/18 06:07:19;;;;;;;2.93;1.10;;;12.80;99.90;;;;;;5073542;28;20208;-60
2022/09/18 06:09:48;;;;;;;3.07;1.10;;;12.80;99.90;;;;;;5072616;28;20208;-60
2022/09/18 06:12:14;;;;;;;2.50;1.10;;;12.80;99.90;;;;;;5073432;28;20209;-61
2022/09/18 06:14:41;;;;;;;2.47;1.13;;;12.80;99.90;;;;;;5073095;28;20228;-60
2022/09/18 06:17:08;;;;;;;10.70;6.33;;;12.90;99.90;;;;;;5073138;28;20204;-60
2022/09/18 06:19:35;;;;;;;3.37;1.20;;;12.90;99.90;;;;;;5073010;28;20205;-60
2022/09/18 06:22:01;;;;;;;4.17;1.27;;;12.90;99.90;;;;;;5073059;28;20644;-61
2022/09/18 06:24:28;;;;;;;4.57;1.27;;;12.90;99.90;;;;;;5073289;28;20205;-61
2022/09/18 06:26:56;;;;;;;2.40;1.20;;;12.90;99.90;;;;;;5073044;28;20266;-61
2022/09/18 06:29:23;;;;;;;3.07;1.20;;;12.90;99.90;;;;;;5072559;28;20220;-60
2022/09/18 06:31:50;;;;;;;4.20;1.23;;;12.90;99.90;;;;;;5073118;28;20231;-61
2022/09/18 06:34:16;;;;;;;3.10;1.60;;;12.90;99.90;;;;;;5073067;28;20209;-61
2022/09/18 06:36:43;;;;;;;4.30;1.80;;;12.90;99.90;;;;;;5073017;28;20242;-61
2022/09/18 06:39:10;;;;;;;2.40;1.33;;;13.00;99.90;;;;;;5072121;28;20616;-61
2022/09/18 06:41:37;;;;;;;3.57;1.30;;;13.00;99.90;;;;;;5072604;28;20204;-61
2022/09/18 06:44:05;;;;;;;3.47;1.37;;;13.00;99.90;;;;;;5072633;28;20224;-61
2022/09/18 06:46:32;;;;;;;4.10;1.60;;;13.00;99.90;;;;;;5072509;28;20228;-60
2022/09/18 06:48:58;;;;;;;3.13;1.20;;;13.10;99.90;;;;;;5072052;28;20209;-62
2022/09/18 06:51:25;;;;;;;2.17;1.40;;;13.00;99.90;;;;;;5072688;28;20224;-61
2022/09/18 06:53:52;;;;;;;2.27;1.20;;;13.10;99.90;;;;;;5072653;28;20201;-61
2022/09/18 06:56:18;;;;;;;4.33;1.30;;;13.20;99.90;;;;;;5072551;28;20229;-60
2022/09/18 06:58:45;;;;;;;6.53;1.63;;;13.20;99.90;;;;;;5071954;28;20216;-61
2022/09/18 07:01:13;;;;;;;3.83;1.47;;;13.10;99.90;;;;;;5072424;28;20205;-61
2022/09/18 07:03:40;;;;;;;2.23;1.23;;;13.20;99.90;;;;;;5072489;28;20221;-61
2022/09/18 07:06:08;;;;;;;3.87;1.50;;;13.20;99.90;;;;;;5072382;28;20221;-61
2022/09/18 07:08:35;;;;;;;4.23;1.07;;;13.20;99.90;;;;;;5071888;28;20213;-61
2022/09/18 07:11:02;;;;;;;7.67;1.03;;;13.20;99.90;;;;;;5072146;28;20676;-61
2022/09/18 07:13:30;;;;;;;5.40;1.97;;;13.20;99.90;;;;;;5072391;28;20208;-61
2022/09/18 07:15:57;;;;;;;3.30;1.20;;;13.20;99.90;;;;;;5072058;28;20665;-61
2022/09/18 07:18:25;;;;;;;4.10;1.60;;;13.20;99.90;;;;;;5071734;28;20262;-61
2022/09/18 07:20:52;;;;;;;2.80;1.60;;;13.20;99.90;;;;;;5072236;28;20205;-60
2022/09/18 07:23:19;;;;;;;6.30;3.57;;;13.30;99.90;;;;;;5072262;28;20225;-60
2022/09/18 07:25:46;;;;;;;3.47;1.40;;;13.40;99.90;;;;;;5072225;28;20229;-59
2022/09/18 07:28:13;;;;;;;5.33;1.80;;;13.60;99.90;;;;;;5071491;28;20692;-60
2022/09/18 07:30:40;;;;;;;2.37;1.10;;;13.70;99.90;;;;;;5072057;28;20266;-60
2022/09/18 07:33:09;;;;;;;2.37;1.10;;;13.70;99.90;;;;;;5072180;28;20627;-60
2022/09/18 07:35:37;;;;;;;2.07;1.03;;;13.80;99.90;;;;;;5071925;28;20228;-61
2022/09/18 07:38:06;;;;;;;3.90;1.70;;;13.80;99.90;;;;;;5071221;28;20670;-60
2022/09/18 07:40:33;;;;;;;1.47;1.00;;;13.90;99.90;;;;;;5072033;28;20291;-60
2022/09/18 07:43:00;;;;;;;3.07;1.40;;;13.90;99.90;;;;;;5072059;28;20229;-58
2022/09/18 07:45:27;;;;;;;2.70;1.30;;;14.00;99.90;;;;;;5052219;28;20237;-58
2022/09/18 07:47:54;;;;;;;1.27;0.97;;;14.00;99.90;;;;;;5058164;28;20756;-58
2022/09/18 07:50:21;;;;;;;4.77;1.40;;;14.00;99.90;;;;;;5070928;28;20205;-58
2022/09/18 07:52:51;;;;;;;5.43;1.30;;;14.00;99.90;;;;;;5073270;28;20575;-59
2022/09/18 07:55:19;;;;;;;4.00;1.50;;;14.00;99.90;;;;;;5074141;28;20746;-58
2022/09/18 07:57:46;;;;;;;5.10;1.10;;;14.00;99.90;;;;;;5074749;28;20223;-58
2022/09/18 08:00:14;;;;;;;5.53;1.37;;;14.00;99.90;;;;;;5073877;28;20216;-58
2022/09/18 08:02:41;;;;;;;5.33;1.00;;;14.00;99.90;;;;;;5074649;28;20224;-58
2022/09/18 08:05:08;;;;;;;2.40;0.83;;;14.00;99.90;;;;;;5074206;28;20597;-58
2022/09/18 08:07:35;;;;;;;3.43;1.30;;;14.10;99.90;;;;;;5074020;28;20232;-58
2022/09/18 08:10:05;;;;;;;4.23;1.27;;;14.00;99.90;;;;;;5073840;28;20209;-58
2022/09/18 08:12:33;;;;;;;3.77;1.27;;;14.00;99.90;;;;;;5074335;28;20211;-58
2022/09/18 08:14:59;;;;;;;3.73;1.60;;;14.00;99.90;;;;;;5074045;28;20262;-58
2022/09/18 08:17:26;;;;;;;3.43;1.17;;;14.00;99.90;;;;;;5074205;28;20208;-59
2022/09/18 08:19:53;;;;;;;4.60;1.60;;;13.90;99.90;;;;;;5073854;28;20681;-58
2022/09/18 08:22:20;;;;;;;3.53;1.63;;;13.90;99.90;;;;;;5074158;28;20235;-58
2022/09/18 08:24:46;;;;;;;2.13;1.30;;;13.80;99.90;;;;;;5073849;28;21040;-59
2022/09/18 08:27:14;;;;;;;3.20;1.50;;;13.80;99.90;;;;;;5073958;28;20537;-59
2022/09/18 08:29:41;;;;;;;2.60;1.13;;;13.80;99.90;;;;;;5073398;28;20216;-59
2022/09/18 08:32:08;;;;;;;4.57;1.20;;;13.90;99.90;;;;;;5074128;28;20251;-58
2022/09/18 08:34:34;;;;;;;2.00;1.10;;;14.00;99.90;;;;;;5073672;28;20217;-58
2022/09/18 08:37:01;;;;;;;5.20;1.07;;;14.00;99.90;;;;;;5073651;28;20215;-59
2022/09/18 08:39:28;;;;;;;3.20;1.20;;;14.10;99.90;;;;;;5073158;28;20256;-61
2022/09/18 08:42:12;;;;;;;1.73;0.90;;;14.20;99.90;;;;;;5073915;28;20710;-59
2022/09/18 08:44:47;;;;;;;2.27;1.13;;;14.10;99.90;;;;;;5073574;28;20236;-59
2022/09/18 08:47:19;;;;;;;1.80;0.97;;;14.00;99.90;;;;;;5073303;28;20798;-59
2022/09/18 08:49:50;;;;;;;2.47;1.40;;;14.00;99.90;;;;;;5072746;28;20673;-60
2022/09/18 08:52:19;;;;;;;3.00;1.47;;;14.00;99.90;;;;;;5074100;28;20205;-60
2022/09/18 08:54:50;;;;;;;3.73;1.90;;;14.00;99.90;;;;;;5067174;28;20260;-58
2022/09/18 08:57:21;;;;;;;3.20;1.20;;;14.10;99.90;;;;;;5053679;28;20248;-58
2022/09/18 08:59:53;;;;;;;2.30;0.83;;;14.20;99.90;;;;;;5052492;28;20537;-58
2022/09/18 09:02:30;;;;;;;1.40;0.73;;;14.50;99.90;;;;;;5053451;28;20206;-59
2022/09/18 09:05:02;;;;;;;3.37;1.03;;;14.70;99.90;;;;;;5053316;28;20320;-59
2022/09/18 09:08:01;;;;;;;2.03;0.80;;;14.70;99.90;;;;;;5053633;28;20201;-59
2022/09/18 09:10:41;;;;;;;2.57;1.00;;;14.80;99.90;;;;;;5053402;28;20209;-60
2022/09/18 09:13:56;;;;;;;2.37;1.20;;;14.80;99.90;;;;;;5053270;28;20206;-61
2022/09/18 09:16:33;;;;;;;1.00;0.77;;;14.70;99.90;;;;;;4945844;29;20233;-59
2022/09/18 09:19:01;;;;;;;4.60;1.10;;;14.60;99.90;;;;;;5047614;28;20608;-59
2022/09/18 09:21:49;;;;;;;2.43;0.87;;;14.70;99.90;;;;;;5053332;28;20201;-61
2022/09/18 09:24:29;;;;;;;1.70;0.87;;;14.80;99.90;;;;;;5052791;28;20467;-60
2022/09/18 09:26:57;;;;;;;10.07;6.03;;;14.90;99.90;;;;;;5053052;28;20216;-59
2022/09/18 09:29:28;;;;;;;1.20;0.80;;;14.90;99.90;;;;;;5052366;28;20213;-59
2022/09/18 09:32:00;;;;;;;3.00;1.10;;;14.90;99.90;;;;;;5053151;28;20255;-60
2022/09/18 09:34:32;;;;;;;5.03;1.20;;;15.00;99.90;;;;;;5053328;28;20209;-65
2022/09/18 09:37:03;;;;;;;3.00;1.67;;;15.00;99.90;;;;;;5052725;28;20304;-60
2022/09/18 09:39:35;;;;;;;4.27;0.90;;;15.10;99.90;;;;;;5051967;28;20206;-60
2022/09/18 09:42:10;;;;;;;2.20;1.00;;;15.20;99.90;;;;;;5053157;28;20297;-61
2022/09/18 09:44:42;;;;;;;2.33;1.30;;;15.20;99.90;;;;;;5052464;28;20256;-61
2022/09/18 09:47:26;;;;;;;2.27;1.00;;;15.20;99.90;;;;;;5053392;28;20300;-61
2022/09/18 09:50:03;;;;;;;5.17;2.13;;;15.30;99.90;;;;;;5051488;28;20205;-60
2022/09/18 09:52:31;;;;;;;7.80;2.63;;;15.30;99.90;;;;;;5053027;28;20228;-60
2022/09/18 09:55:01;;;;;;;3.10;1.77;;;15.50;99.90;;;;;;5058937;28;20316;-60
2022/09/18 09:57:35;;;;;;;3.57;1.30;;;15.60;99.90;;;;;;5072567;28;20205;-60
2022/09/18 10:00:09;;;;;;;4.60;1.87;;;15.70;99.90;;;;;;5071904;28;20257;-60
2022/09/18 10:02:54;;;;;;;5.00;1.70;;;15.80;99.90;;;;;;5072994;28;20205;-60
2022/09/18 10:05:29;;;;;;;5.07;2.47;;;15.90;99.90;;;;;;5071769;28;20633;-59
2022/09/18 10:08:03;;;;;;;5.40;1.60;;;15.90;99.90;;;;;;5072759;28;20197;-59
2022/09/18 10:10:36;;;;;;;3.70;1.30;;;15.80;99.90;;;;;;5070999;28;20214;-60
2022/09/18 10:13:08;;;;;;;3.50;1.40;;;15.80;99.90;;;;;;5072411;28;20628;-59
2022/09/18 10:15:39;;;;;;;4.77;1.47;;;15.90;99.90;;;;;;5070882;28;20233;-59
2022/09/18 10:18:15;;;;;;;3.80;1.30;;;16.00;99.90;;;;;;5072196;28;20211;-60
2022/09/18 10:20:43;;;;;;;3.37;1.10;;;15.90;99.90;;;;;;5072108;28;20213;-59
2022/09/18 10:23:16;;;;;;;4.10;1.53;;;16.00;99.90;;;;;;5071611;28;20208;-60
2022/09/18 10:25:48;;;;;;;4.73;1.03;;;16.10;99.90;;;;;;5071105;28;20237;-59
2022/09/18 10:28:15;;;;;;;3.57;1.43;;;16.40;99.90;;;;;;5071767;28;20213;-59
2022/09/18 10:30:54;;;;;;;4.53;1.50;;;16.70;99.90;;;;;;5072056;28;20216;-59
2022/09/18 10:33:33;;;;;;;4.40;1.10;;;16.90;99.90;;;;;;5071421;28;20237;-61
2022/09/18 10:36:03;;;;;;;2.57;1.33;;;17.20;99.90;;;;;;5071709;28;20286;-59
2022/09/18 10:38:33;;;;;;;3.78;1.80;;;17.60;99.90;;;;;;5071005;28;20236;-59
2022/09/18 10:41:25;;;;;;;6.07;1.77;;;17.90;99.90;;;;;;5071640;28;20803;-59
2022/09/18 10:43:55;;;;;;;8.13;3.33;;;18.30;99.90;;;;;;5071812;28;20319;-60
2022/09/18 10:46:27;;;;;;;6.38;1.80;;;18.50;99.90;;;;;;5071960;28;20237;-60
2022/09/18 10:48:57;;;;;;;6.70;1.40;;;18.70;99.90;;;;;;5071861;28;20217;-59
2022/09/18 10:51:27;;;;;;;3.95;1.42;;;18.80;99.90;;;;;;5071718;28;20205;-59
2022/09/18 10:54:03;;;;;;;7.07;1.85;;;18.80;99.90;;;;;;5071522;28;20197;-60
2022/09/18 10:56:30;;;;;;;4.15;2.20;;;18.70;99.90;;;;;;5051947;28;20231;-60
2022/09/18 10:59:12;;;;;;;5.60;3.10;;;18.70;99.90;;;;;;5051144;28;20210;-60
2022/09/18 11:01:39;;;;;;;2.42;1.10;;;18.80;99.90;;;;;;5051211;28;20213;-60
2022/09/18 11:04:16;;;;;;;4.82;1.10;;;19.00;99.90;;;;;;5051003;28;20727;-59
2022/09/18 11:06:45;;;;;;;2.72;1.33;;;19.10;99.90;;;;;;5051062;28;20286;-60
2022/09/18 11:09:18;;;;;;;2.65;1.15;;;19.00;99.90;;;;;;5050701;28;20324;-60
2022/09/18 11:11:50;;;;;;;4.45;1.08;;;19.10;99.90;;;;;;5051333;28;20209;-59
2022/09/18 11:14:18;;;;;;;3.40;1.42;;;19.10;99.90;;;;;;5050547;28;20201;-59
2022/09/18 11:16:48;;;;;;;1.77;0.98;;;19.30;99.90;;;;;;5051875;28;20202;-62
2022/09/18 11:19:25;;;;;;;3.67;1.00;;;19.30;99.90;;;;;;5050483;28;20206;-62
2022/09/18 11:21:54;;;;;;;2.20;0.93;;;19.20;99.90;;;;;;5051227;28;20228;-62
2022/09/18 11:24:25;;;;;;;5.13;1.25;;;19.00;99.90;;;;;;5051036;28;20230;-62
2022/09/18 11:26:54;;;;;;;3.05;0.93;;;19.10;99.90;;;;;;5050650;28;20576;-62
2022/09/18 11:29:29;;;;;;;3.25;1.75;;;19.20;99.90;;;;;;5050939;28;20209;-62
2022/09/18 11:31:59;;;;;;;2.75;0.90;;;19.40;99.90;;;;;;5051088;28;20212;-62
2022/09/18 11:34:30;;;;;;;4.45;1.00;;;19.50;99.90;;;;;;5050580;28;20230;-61
2022/09/18 11:37:00;;;;;;;2.97;0.90;;;19.60;99.90;;;;;;5050960;28;20213;-62
2022/09/18 11:39:33;;;;;;;3.47;1.00;;;19.60;99.90;;;;;;5049884;28;20205;-62
2022/09/18 11:42:01;;;;;;;2.60;1.00;;;19.70;99.90;;;;;;5050683;28;20585;-61
2022/09/18 11:44:30;;;;;;;3.60;1.58;;;19.70;99.90;;;;;;5049658;28;20308;-61
2022/09/18 11:47:24;;;;;;;1.30;0.85;;;19.70;99.90;;;;;;5050928;28;20213;-62
2022/09/18 11:50:02;;;;;;;3.65;0.80;;;19.90;99.90;;;;;;5050147;28;20673;-63
2022/09/18 11:52:30;;;;;;;3.85;1.23;;;20.00;99.70;;;;;;5050397;28;20212;-60
2022/09/18 11:55:03;;;;;;;1.85;0.52;;;20.10;99.70;;;;;;5054649;28;20677;-62
2022/09/18 11:57:34;;;;;;;3.25;0.90;;;20.20;99.30;;;;;;5070655;28;20292;-62
2022/09/18 12:00:04;;;;;;;1.35;0.55;;;20.30;97.60;;;;;;5069990;28;20576;-63
2022/09/18 12:02:36;;;;;;;3.50;0.80;;;20.30;97.80;;;;;;5070498;28;20730;-62
2022/09/18 12:05:15;;;;;;;1.98;0.70;;;20.40;98.00;;;;;;5069506;28;20298;-62
2022/09/18 12:07:51;;;;;;;2.47;0.80;;;20.70;98.10;;;;;;5070310;28;20272;-62
2022/09/18 12:10:25;;;;;;;5.05;0.85;;;20.70;95.00;;;;;;5069700;28;20208;-62
2022/09/18 12:13:15;;;;;;;2.47;0.98;;;20.70;94.60;;;;;;5069952;28;20623;-62
2022/09/18 12:15:45;;;;;;;2.60;0.80;;;20.60;94.70;;;;;;5069283;28;20268;-62
2022/09/18 12:18:17;;;;;;;1.73;0.82;;;20.60;95.50;;;;;;5070588;28;20586;-61
2022/09/18 12:20:49;;;;;;;3.97;1.30;;;20.80;96.20;;;;;;5069902;28;20304;-62
2022/09/18 12:23:20;;;;;;;2.05;1.05;;;21.00;95.90;;;;;;5070567;28;20201;-62
2022/09/18 12:25:56;;;;;;;3.22;1.20;;;21.10;94.60;;;;;;5069430;28;20286;-62
2022/09/18 12:28:35;;;;;;;4.85;1.60;;;21.10;94.80;;;;;;5069743;28;20230;-62
2022/09/18 12:31:11;;;;;;;3.60;0.95;;;21.10;93.80;;;;;;5070462;28;20342;-62
2022/09/18 12:33:45;;;;;;;2.35;0.77;;;21.00;93.20;;;;;;5070305;28;20216;-62
2022/09/18 12:36:46;;;;;;;1.73;0.80;;;20.70;93.30;;;;;;5069426;28;20256;-62
2022/09/18 12:39:32;;;;;;;3.85;0.70;;;20.50;93.50;;;;;;5047111;28;20211;-62
2022/09/18 12:42:10;;;;;;;4.47;1.30;;;20.20;93.80;;;;;;5074151;28;20212;-62
2022/09/18 12:45:10;;;;;;;1.42;1.00;;;19.80;92.00;;;;;;5073604;28;20228;-62
2022/09/18 12:47:52;;;;;;;3.47;0.75;;;19.40;92.50;;;;;;5073653;28;20629;-62
2022/09/18 12:50:33;;;;;;;1.95;0.65;;;19.20;92.60;;;;;;5073195;28;20212;-63
2022/09/18 12:53:13;;;;;;;4.25;0.98;;;19.10;92.60;;;;;;5073518;28;20205;-61
2022/09/18 12:55:55;;;;;;;3.03;0.60;;;18.90;93.00;;;;;;5062425;28;20225;-62
2022/09/18 12:58:44;;;;;;;3.90;1.00;;;19.00;93.50;;;;;;5054394;28;20210;-62
2022/09/18 13:01:17;;;;;;;4.85;1.42;;;19.00;93.60;;;;;;5053704;28;20616;-62
2022/09/18 13:03:45;;;;;;;2.42;0.90;;;19.20;93.30;;;;;;5053305;28;20404;-62
2022/09/18 13:06:14;;;;;;;1.67;0.93;;;19.30;93.40;;;;;;5053023;28;20701;-61